Time;durP1;ratioP1;P1;durP2;ratioP2;P2;SDS_P1;SDS_P2;PMS_P1;PMS_P2;Temp;Humidity;BMP_temperature;BMP_pressure;BME280_temperature;BME280_humidity;BME280_pressure;Samples;Min_cycle;Max_cycle;Signal;HPM_P1;HPM_P2
2021/12/11 00:00:47;;;;;;;10.07;5.93;;;-1.50;99.90;;;;;;4971838;28;20041;-83
2021/12/11 00:03:21;;;;;;;18.05;8.88;;;-1.50;99.90;;;;;;4976195;28;20029;-81
2021/12/11 00:05:50;;;;;;;15.15;8.25;;;-1.80;99.90;;;;;;4987560;28;20076;-80
2021/12/11 00:08:18;;;;;;;10.90;6.00;;;-2.00;99.90;;;;;;4979273;28;20042;-80
2021/12/11 00:10:47;;;;;;;16.42;8.15;;;-2.00;99.90;;;;;;4978208;28;20474;-80
2021/12/11 00:13:16;;;;;;;10.10;6.07;;;-1.90;99.90;;;;;;4989774;28;20033;-81
2021/12/11 00:15:42;;;;;;;11.73;6.65;;;-1.60;99.90;;;;;;5005912;28;20048;-81
2021/12/11 00:18:11;;;;;;;11.30;7.47;;;-1.70;99.90;;;;;;4994180;28;20125;-80
2021/12/11 00:20:41;;;;;;;14.43;7.65;;;-1.60;99.90;;;;;;5010830;28;20540;-81
2021/12/11 00:23:07;;;;;;;20.10;9.15;;;-1.50;99.90;;;;;;4986409;28;20076;-80
2021/12/11 00:25:39;;;;;;;13.90;8.15;;;-1.70;99.90;;;;;;4977513;28;20038;-80
2021/12/11 00:28:05;;;;;;;15.50;9.35;;;-1.70;99.90;;;;;;4991084;28;20489;-81
2021/12/11 00:30:35;;;;;;;13.82;8.80;;;-1.90;99.90;;;;;;4978740;28;20084;-80
2021/12/11 00:33:09;;;;;;;16.83;8.85;;;-2.00;99.90;;;;;;5010626;28;20406;-81
2021/12/11 00:35:35;;;;;;;13.05;7.18;;;-2.10;99.90;;;;;;4989823;28;20030;-80
2021/12/11 00:38:06;;;;;;;17.02;8.55;;;-2.10;99.90;;;;;;5007767;28;20448;-80
2021/12/11 00:40:32;;;;;;;12.57;6.68;;;-1.90;99.90;;;;;;4989030;28;20026;-81
2021/12/11 00:42:59;;;;;;;13.85;6.95;;;-1.90;99.90;;;;;;4985892;28;20021;-80
2021/12/11 00:45:27;;;;;;;16.17;8.20;;;-1.90;99.90;;;;;;5009857;28;20037;-80
2021/12/11 00:47:55;;;;;;;9.30;5.57;;;-1.70;99.90;;;;;;4978045;28;20034;-80
2021/12/11 00:50:25;;;;;;;14.32;6.43;;;-1.60;99.90;;;;;;4993892;28;20398;-80
2021/12/11 00:52:53;;;;;;;13.70;7.68;;;-1.50;99.90;;;;;;4997365;28;20036;-80
2021/12/11 00:55:36;;;;;;;16.70;8.07;;;-1.60;99.90;;;;;;4974228;28;20038;-79
2021/12/11 00:58:25;;;;;;;17.45;7.45;;;-1.80;99.90;;;;;;4991137;28;20053;-79
2021/12/11 01:01:00;;;;;;;16.55;8.88;;;-2.00;99.90;;;;;;4998507;28;20513;-80
2021/12/11 01:03:32;;;;;;;17.23;9.15;;;-2.00;99.90;;;;;;5023559;28;20040;-79
2021/12/11 01:05:58;;;;;;;14.65;8.23;;;-2.10;99.90;;;;;;5010640;28;20036;-79
2021/12/11 01:08:26;;;;;;;18.42;9.20;;;-2.10;99.90;;;;;;5005430;28;20072;-79
2021/12/11 01:10:57;;;;;;;20.05;9.50;;;-2.30;99.90;;;;;;5005614;28;20034;-79
2021/12/11 01:13:28;;;;;;;21.52;9.73;;;-2.50;99.90;;;;;;4996598;28;20564;-79
2021/12/11 01:16:01;;;;;;;12.52;7.18;;;-2.50;99.90;;;;;;5006354;28;20025;-79
2021/12/11 01:18:35;;;;;;;15.05;9.07;;;-2.20;99.90;;;;;;5010137;28;20512;-79
2021/12/11 01:21:08;;;;;;;18.17;9.13;;;-2.40;99.90;;;;;;4974336;28;20042;-79
2021/12/11 01:26:08;;;;;;;20.60;10.50;;;-2.30;99.90;;;;;;5007819;28;20037;-80
2021/12/11 01:28:34;;;;;;;16.90;9.88;;;-2.50;99.90;;;;;;4977691;28;20069;-79
2021/12/11 01:31:00;;;;;;;18.65;10.23;;;-2.60;99.90;;;;;;4977755;28;20030;-79
2021/12/11 01:33:26;;;;;;;23.10;9.68;;;-2.50;99.90;;;;;;4988344;28;20032;-79
2021/12/11 01:35:52;;;;;;;13.00;8.07;;;-2.30;99.90;;;;;;4991197;28;20497;-79
2021/12/11 01:38:22;;;;;;;15.55;7.68;;;-2.10;99.90;;;;;;5006137;28;20061;-79
2021/12/11 01:40:50;;;;;;;10.82;7.32;;;-2.10;99.90;;;;;;4983435;28;20576;-79
2021/12/11 01:43:15;;;;;;;19.33;9.35;;;-2.00;99.90;;;;;;4991425;28;20116;-79
2021/12/11 01:45:43;;;;;;;10.73;6.10;;;-2.00;99.90;;;;;;4987082;28;20029;-79
2021/12/11 01:48:09;;;;;;;19.17;9.27;;;-2.00;99.90;;;;;;4997152;28;20036;-79
2021/12/11 01:50:40;;;;;;;16.63;9.93;;;-1.90;99.90;;;;;;4993018;28;20026;-79
2021/12/11 01:53:12;;;;;;;18.40;10.15;;;-2.10;99.90;;;;;;5003346;28;20036;-79
2021/12/11 01:55:42;;;;;;;19.80;10.13;;;-2.30;99.90;;;;;;5006035;28;20033;-79
2021/12/11 01:58:10;;;;;;;21.20;11.05;;;-2.30;99.90;;;;;;5012973;28;20030;-79
2021/12/11 02:00:44;;;;;;;16.75;10.10;;;-2.40;99.90;;;;;;4986203;28;20051;-79
2021/12/11 02:03:16;;;;;;;22.55;10.35;;;-2.40;99.90;;;;;;4993683;28;20580;-80
2021/12/11 02:05:43;;;;;;;22.05;10.73;;;-2.30;99.90;;;;;;4988640;28;20119;-80
2021/12/11 02:08:14;;;;;;;22.63;10.48;;;-2.20;99.90;;;;;;5007628;28;20030;-80
2021/12/11 02:10:45;;;;;;;13.00;7.05;;;-2.10;99.90;;;;;;4987966;28;20075;-80
2021/12/11 02:13:13;;;;;;;12.93;7.53;;;-2.10;99.90;;;;;;4974752;28;20371;-80
2021/12/11 02:15:46;;;;;;;22.35;11.60;;;-1.90;99.90;;;;;;5006962;28;20489;-79
2021/12/11 02:18:16;;;;;;;25.45;11.43;;;-2.00;99.90;;;;;;4996737;28;20041;-79
2021/12/11 02:20:53;;;;;;;27.35;12.73;;;-2.00;99.90;;;;;;4968217;28;20025;-80
2021/12/11 02:23:20;;;;;;;32.63;12.65;;;-2.20;99.90;;;;;;4982604;28;20498;-80
2021/12/11 02:25:48;;;;;;;16.73;9.32;;;-2.10;99.90;;;;;;4991640;28;20053;-80
2021/12/11 02:28:28;;;;;;;46.08;13.43;;;-2.00;99.90;;;;;;4976249;28;20071;-79
2021/12/11 02:31:05;;;;;;;38.88;12.85;;;-2.10;99.90;;;;;;4981764;28;20579;-81
2021/12/11 02:34:16;;;;;;;28.55;11.02;;;-2.00;99.90;;;;;;5024225;28;20107;-79
2021/12/11 02:36:48;;;;;;;15.85;8.48;;;-2.00;99.90;;;;;;5005134;28;20045;-79
2021/12/11 02:39:27;;;;;;;40.83;14.95;;;-2.00;99.90;;;;;;5004512;28;20041;-79
2021/12/11 02:41:58;;;;;;;49.88;12.82;;;-2.10;99.90;;;;;;5005293;28;20034;-79
2021/12/11 02:44:42;;;;;;;19.00;10.80;;;-2.20;99.90;;;;;;4987520;28;20038;-79
2021/12/11 02:47:25;;;;;;;27.10;11.23;;;-2.10;99.90;;;;;;4983488;28;20053;-79
2021/12/11 02:49:59;;;;;;;100.20;17.30;;;-2.00;99.90;;;;;;4985002;28;20572;-79
2021/12/11 02:52:38;;;;;;;32.88;10.43;;;-1.90;99.90;;;;;;4989829;28;20041;-79
2021/12/11 02:55:19;;;;;;;34.22;10.43;;;-1.90;99.90;;;;;;4987812;28;20045;-80
2021/12/11 02:58:06;;;;;;;17.20;8.32;;;-1.80;99.90;;;;;;4976348;28;20036;-79
2021/12/11 03:00:41;;;;;;;37.92;11.60;;;-1.80;99.90;;;;;;5004391;28;20033;-79
2021/12/11 03:03:09;;;;;;;38.45;14.98;;;-1.70;99.90;;;;;;4977233;28;20080;-79
2021/12/11 03:05:43;;;;;;;19.77;9.15;;;-1.60;99.90;;;;;;4989064;28;20393;-79
2021/12/11 03:08:11;;;;;;;34.13;13.05;;;-1.60;99.90;;;;;;5005650;28;20087;-79
2021/12/11 03:10:38;;;;;;;78.75;17.27;;;-1.50;99.90;;;;;;4988545;28;20155;-80
2021/12/11 03:13:04;;;;;;;48.33;16.48;;;-1.60;99.90;;;;;;4998442;28;20060;-79
2021/12/11 03:15:30;;;;;;;48.00;18.23;;;-1.70;99.90;;;;;;4959266;28;20054;-79
2021/12/11 03:17:55;;;;;;;68.32;19.25;;;-1.70;99.90;;;;;;4983825;28;20176;-79
2021/12/11 03:20:21;;;;;;;66.82;16.95;;;-1.60;99.90;;;;;;5003369;28;20160;-79
2021/12/11 03:22:47;;;;;;;40.35;13.32;;;-1.60;99.90;;;;;;4999765;28;20069;-80
2021/12/11 03:25:16;;;;;;;24.50;12.68;;;-1.60;99.90;;;;;;4998374;28;20041;-79
2021/12/11 03:27:41;;;;;;;28.30;11.63;;;-1.50;99.90;;;;;;4993745;28;20095;-79
2021/12/11 03:30:08;;;;;;;52.22;17.58;;;-1.40;99.90;;;;;;4989183;28;20029;-79
2021/12/11 03:32:34;;;;;;;60.17;20.00;;;-1.40;99.90;;;;;;5011635;28;20393;-80
2021/12/11 03:35:00;;;;;;;43.55;17.63;;;-1.40;99.90;;;;;;4976895;28;20091;-79
2021/12/11 03:37:27;;;;;;;32.22;14.88;;;-1.40;99.90;;;;;;4974890;28;20025;-79
2021/12/11 03:39:53;;;;;;;43.05;15.93;;;-1.40;99.90;;;;;;4987502;28;20506;-79
2021/12/11 03:42:26;;;;;;;33.72;14.93;;;-1.40;99.90;;;;;;4981678;28;20127;-79
2021/12/11 03:44:52;;;;;;;22.23;11.55;;;-1.30;99.90;;;;;;4995078;28;20037;-79
2021/12/11 03:47:21;;;;;;;49.67;18.10;;;-1.20;99.90;;;;;;4989712;28;20518;-79
2021/12/11 03:49:47;;;;;;;47.05;15.85;;;-1.30;99.90;;;;;;4994487;28;20038;-78
2021/12/11 03:52:12;;;;;;;23.75;11.95;;;-1.20;99.90;;;;;;4994886;28;20034;-79
2021/12/11 03:54:39;;;;;;;33.22;13.07;;;-1.20;99.90;;;;;;4978403;28;20116;-78
2021/12/11 03:57:06;;;;;;;26.50;13.40;;;-1.10;99.90;;;;;;5005015;28;20076;-78
2021/12/11 03:59:32;;;;;;;24.13;11.75;;;-1.10;99.90;;;;;;4990880;28;20120;-79
2021/12/11 04:02:01;;;;;;;41.25;16.80;;;-1.10;99.90;;;;;;5003185;28;20112;-79
2021/12/11 04:04:36;;;;;;;31.38;14.00;;;-1.10;99.90;;;;;;5009234;28;20766;-79
2021/12/11 04:07:03;;;;;;;30.88;14.07;;;-1.10;99.90;;;;;;4978313;28;20527;-79
2021/12/11 04:09:28;;;;;;;34.65;14.88;;;-1.00;99.90;;;;;;4990663;28;20110;-79
2021/12/11 04:11:54;;;;;;;29.27;13.85;;;-1.00;99.90;;;;;;4991979;28;20120;-79
2021/12/11 04:14:22;;;;;;;22.92;12.23;;;-1.00;99.90;;;;;;5006616;28;20029;-79
2021/12/11 04:16:48;;;;;;;27.92;14.60;;;-0.90;99.90;;;;;;4995570;28;20034;-79
2021/12/11 04:19:14;;;;;;;36.35;15.40;;;-0.90;99.90;;;;;;5003206;28;20038;-80
2021/12/11 04:21:41;;;;;;;38.40;15.20;;;-0.90;99.90;;;;;;4991972;28;20117;-79
2021/12/11 04:24:08;;;;;;;30.48;13.95;;;-0.90;99.90;;;;;;5005574;28;20026;-79
2021/12/11 04:26:34;;;;;;;34.25;15.60;;;-0.80;99.90;;;;;;4977459;28;20061;-79
2021/12/11 04:28:59;;;;;;;28.27;14.52;;;-0.80;99.90;;;;;;4974605;28;20049;-79
2021/12/11 04:31:27;;;;;;;41.67;17.10;;;-0.80;99.90;;;;;;4988203;28;20025;-79
2021/12/11 04:33:55;;;;;;;27.45;12.57;;;-0.80;99.90;;;;;;4998658;28;20038;-79
2021/12/11 04:36:26;;;;;;;34.83;16.38;;;-0.80;99.90;;;;;;5004903;28;20037;-79
2021/12/11 04:38:52;;;;;;;39.28;16.35;;;-0.70;99.90;;;;;;4994470;28;20117;-79
2021/12/11 04:41:26;;;;;;;31.80;13.07;;;-0.70;99.90;;;;;;4989006;28;20120;-79
2021/12/11 04:43:52;;;;;;;58.25;19.67;;;-0.70;99.90;;;;;;4979876;28;20027;-79
2021/12/11 04:46:18;;;;;;;70.78;20.95;;;-0.70;99.90;;;;;;4991831;28;20049;-79
2021/12/11 04:49:04;;;;;;;60.30;20.10;;;-0.70;99.90;;;;;;5007069;28;20037;-79
2021/12/11 04:51:39;;;;;;;;;;;-0.70;99.90;;;;;;5003340;28;20414;-79
2021/12/11 05:00:05;;;;;;;34.08;14.90;;;-0.60;99.90;;;;;;4992070;28;20092;-79
2021/12/11 05:10:19;;;;;;;95.15;24.67;;;-0.50;99.90;;;;;;5007776;28;20079;-80
2021/12/11 05:12:47;;;;;;;67.95;21.83;;;-0.50;99.90;;;;;;4989544;28;20120;-79
2021/12/11 05:15:20;;;;;;;55.22;19.63;;;-0.50;99.90;;;;;;4986795;28;20069;-79
2021/12/11 05:17:46;;;;;;;50.17;19.17;;;-0.50;99.90;;;;;;4988282;28;20037;-80
2021/12/11 05:20:13;;;;;;;51.40;18.00;;;-0.50;99.90;;;;;;4987408;28;20052;-79
2021/12/11 05:22:38;;;;;;;45.53;17.23;;;-0.50;99.90;;;;;;4975990;28;20393;-79
2021/12/11 05:25:05;;;;;;;38.25;14.20;;;-0.40;99.90;;;;;;4991225;28;20025;-79
2021/12/11 05:27:31;;;;;;;41.33;17.63;;;-0.40;99.90;;;;;;4991050;28;20033;-79
2021/12/11 05:29:56;;;;;;;49.20;19.65;;;-0.30;99.90;;;;;;5005602;28;20044;-79
2021/12/11 05:32:23;;;;;;;54.08;17.88;;;-0.30;99.90;;;;;;4998498;28;20038;-79
2021/12/11 05:34:49;;;;;;;43.35;16.98;;;-0.30;99.90;;;;;;4996812;28;20034;-79
2021/12/11 05:37:14;;;;;;;41.85;17.48;;;-0.40;99.90;;;;;;4977496;28;20083;-80
2021/12/11 05:39:40;;;;;;;40.47;16.48;;;-0.30;99.90;;;;;;4978956;28;20041;-80
2021/12/11 05:42:06;;;;;;;40.50;17.48;;;-0.30;99.90;;;;;;4987418;28;20034;-80
2021/12/11 05:44:32;;;;;;;42.95;15.88;;;-0.20;99.90;;;;;;4972601;28;20056;-79
2021/12/11 05:46:57;;;;;;;36.92;13.98;;;-0.20;99.90;;;;;;4985449;28;20036;-79
2021/12/11 05:49:24;;;;;;;50.10;19.27;;;-0.20;99.90;;;;;;4990052;28;20112;-79
2021/12/11 05:51:50;;;;;;;57.92;22.33;;;-0.20;99.90;;;;;;4990249;28;20034;-79
2021/12/11 05:54:21;;;;;;;29.10;11.35;;;-0.20;99.90;;;;;;4990524;28;20763;-80
2021/12/11 05:56:46;;;;;;;49.78;18.88;;;-0.20;99.90;;;;;;4990494;28;20121;-79
2021/12/11 05:59:13;;;;;;;40.90;15.70;;;-0.10;99.90;;;;;;4994434;28;20039;-79
2021/12/11 06:01:52;;;;;;;41.22;15.43;;;-0.10;99.90;;;;;;4973977;28;20068;-79
2021/12/11 06:04:20;;;;;;;56.15;21.20;;;-0.10;99.90;;;;;;4989455;28;20038;-79
2021/12/11 06:06:46;;;;;;;19.38;7.57;;;-0.10;99.90;;;;;;4992030;28;20060;-79
2021/12/11 06:09:12;;;;;;;53.20;19.08;;;-0.10;99.90;;;;;;4973234;28;20497;-79
2021/12/11 06:11:38;;;;;;;59.25;18.88;;;-0.10;99.90;;;;;;4985515;28;20502;-79
2021/12/11 06:14:05;;;;;;;78.35;27.02;;;0.00;99.90;;;;;;5005511;28;20037;-79
2021/12/11 06:16:31;;;;;;;65.53;23.65;;;0.00;99.90;;;;;;4987320;28;20044;-79
2021/12/11 06:19:02;;;;;;;43.88;13.88;;;0.00;99.90;;;;;;4989381;28;20050;-79
2021/12/11 06:21:28;;;;;;;52.25;17.13;;;0.00;99.90;;;;;;4969498;28;20156;-79
2021/12/11 06:23:54;;;;;;;32.58;11.50;;;0.00;99.90;;;;;;5008185;28;20034;-80
2021/12/11 06:26:19;;;;;;;39.92;14.05;;;0.00;99.90;;;;;;4991386;28;20387;-79
2021/12/11 06:28:45;;;;;;;59.88;19.25;;;0.00;99.90;;;;;;4975418;28;20040;-79
2021/12/11 06:31:18;;;;;;;82.50;26.50;;;0.00;99.90;;;;;;4985919;28;20029;-79
2021/12/11 06:33:43;;;;;;;68.07;23.00;;;0.10;99.90;;;;;;4992085;28;20046;-80
2021/12/11 06:36:13;;;;;;;65.07;21.23;;;0.10;99.90;;;;;;4986715;28;20033;-80
2021/12/11 06:38:38;;;;;;;61.88;20.80;;;0.10;99.90;;;;;;4990082;28;20490;-80
2021/12/11 06:41:05;;;;;;;74.78;22.17;;;0.20;99.90;;;;;;4983671;28;20025;-79
2021/12/11 06:43:32;;;;;;;65.35;22.60;;;0.20;99.90;;;;;;4990350;28;20030;-79
2021/12/11 06:45:58;;;;;;;70.28;23.70;;;0.20;99.90;;;;;;4997781;28;20111;-79
2021/12/11 06:48:23;;;;;;;76.63;23.83;;;0.20;99.90;;;;;;4989397;28;20076;-80
2021/12/11 06:50:49;;;;;;;66.90;22.13;;;0.20;99.90;;;;;;5002535;28;20034;-79
2021/12/11 06:53:55;;;;;;;73.10;22.27;;;0.20;99.90;;;;;;4976503;28;20033;-79
2021/12/11 06:56:21;;;;;;;75.80;22.15;;;0.20;99.90;;;;;;4944307;28;20058;-80
2021/12/11 06:58:47;;;;;;;63.70;24.15;;;0.20;99.90;;;;;;4926080;28;20044;-80
2021/12/11 07:01:13;;;;;;;55.25;19.13;;;0.20;99.90;;;;;;4956697;28;20088;-80
2021/12/11 07:03:39;;;;;;;69.47;24.42;;;0.20;99.90;;;;;;4990372;28;20493;-79
2021/12/11 07:06:04;;;;;;;82.05;28.73;;;0.30;99.90;;;;;;5001124;28;20057;-80
2021/12/11 07:08:30;;;;;;;81.13;25.73;;;0.30;99.90;;;;;;4983820;28;20034;-80
2021/12/11 07:10:59;;;;;;;25.08;9.48;;;0.30;99.90;;;;;;4985455;28;20448;-80
2021/12/11 07:13:25;;;;;;;56.22;20.88;;;0.30;99.90;;;;;;4970588;28;20037;-80
2021/12/11 07:15:52;;;;;;;68.47;24.33;;;0.30;99.90;;;;;;4991730;28;20038;-80
2021/12/11 07:18:18;;;;;;;56.88;18.63;;;0.30;99.90;;;;;;4987490;28;20073;-80
2021/12/11 07:20:44;;;;;;;79.90;29.95;;;0.40;99.90;;;;;;4990619;28;20073;-80
2021/12/11 07:23:09;;;;;;;75.35;26.60;;;0.30;99.90;;;;;;4985452;28;20502;-80
2021/12/11 07:25:43;;;;;;;82.25;29.33;;;0.30;99.90;;;;;;4991996;28;20072;-80
2021/12/11 07:28:10;;;;;;;57.15;21.17;;;0.40;99.90;;;;;;5020215;28;20033;-80
2021/12/11 07:30:36;;;;;;;68.80;24.00;;;0.30;99.90;;;;;;4983203;28;20030;-80
2021/12/11 07:33:02;;;;;;;64.85;23.92;;;0.40;99.90;;;;;;4988161;28;20038;-80
2021/12/11 07:35:27;;;;;;;70.10;25.13;;;0.40;99.90;;;;;;4975299;28;20378;-81
2021/12/11 07:37:53;;;;;;;69.28;25.98;;;0.40;99.90;;;;;;5005816;28;20029;-80
2021/12/11 07:40:21;;;;;;;74.82;28.20;;;0.40;99.90;;;;;;4962535;28;20038;-80
2021/12/11 07:42:46;;;;;;;64.45;25.30;;;0.40;99.90;;;;;;4984904;28;20440;-80
2021/12/11 07:45:12;;;;;;;66.75;27.00;;;0.40;99.90;;;;;;4983425;28;20033;-80
2021/12/11 07:47:38;;;;;;;58.38;19.20;;;0.40;99.90;;;;;;4974044;28;20030;-80
2021/12/11 07:50:04;;;;;;;56.60;19.92;;;0.40;99.90;;;;;;4981853;28;20030;-80
2021/12/11 07:52:31;;;;;;;63.22;24.83;;;0.40;99.90;;;;;;4977172;28;20102;-80
2021/12/11 07:54:57;;;;;;;62.38;21.73;;;0.40;99.90;;;;;;5013440;28;20033;-80
2021/12/11 07:57:22;;;;;;;63.83;24.98;;;0.40;99.90;;;;;;5005209;28;20030;-83
2021/12/11 07:59:48;;;;;;;71.30;23.52;;;0.40;99.90;;;;;;4992247;28;20045;-81
2021/12/11 08:02:13;;;;;;;52.38;19.92;;;0.50;99.90;;;;;;4994877;28;20041;-84
2021/12/11 08:04:39;;;;;;;67.97;28.17;;;0.50;99.90;;;;;;4990239;28;20406;-81
2021/12/11 08:07:04;;;;;;;62.47;18.73;;;0.50;99.90;;;;;;5000517;28;20030;-82
2021/12/11 08:09:30;;;;;;;44.47;19.08;;;0.50;99.90;;;;;;4975142;28;20025;-81
2021/12/11 08:11:56;;;;;;;58.15;23.70;;;0.50;99.90;;;;;;4984241;28;20053;-82
2021/12/11 08:14:22;;;;;;;55.72;22.48;;;0.50;99.90;;;;;;4993012;28;20034;-82
2021/12/11 08:16:49;;;;;;;32.83;12.93;;;0.50;99.90;;;;;;4977001;28;20040;-82
2021/12/11 08:19:22;;;;;;;60.28;22.35;;;0.60;99.90;;;;;;4979684;28;20052;-83
2021/12/11 08:21:50;;;;;;;51.13;19.52;;;0.60;99.90;;;;;;4983711;28;20654;-83
2021/12/11 08:24:16;;;;;;;59.60;23.10;;;0.60;99.90;;;;;;4994546;28;20069;-82
2021/12/11 08:26:42;;;;;;;61.80;25.77;;;0.60;99.90;;;;;;4995008;28;20046;-83
2021/12/11 08:29:11;;;;;;;57.80;23.13;;;0.70;99.90;;;;;;4986350;28;20035;-82
2021/12/11 08:31:39;;;;;;;63.38;25.08;;;0.70;99.90;;;;;;4976886;28;20034;-83
2021/12/11 08:34:05;;;;;;;65.90;25.67;;;0.70;99.90;;;;;;4975797;28;20643;-81
2021/12/11 08:36:30;;;;;;;56.90;24.00;;;0.70;99.90;;;;;;4992800;28;20034;-81
2021/12/11 08:38:58;;;;;;;71.75;26.52;;;0.70;99.90;;;;;;5000793;28;20382;-82
2021/12/11 08:41:24;;;;;;;62.05;23.83;;;0.80;99.90;;;;;;4975299;28;20112;-82
2021/12/11 08:43:57;;;;;;;63.60;26.55;;;0.80;99.90;;;;;;4980062;28;20041;-82
2021/12/11 08:46:27;;;;;;;54.47;21.20;;;0.80;99.90;;;;;;4980578;28;20033;-81
2021/12/11 08:48:54;;;;;;;52.53;20.27;;;0.80;99.90;;;;;;4994558;28;20471;-81
2021/12/11 08:51:26;;;;;;;65.72;26.30;;;0.90;99.90;;;;;;4990207;28;20029;-81
2021/12/11 08:53:52;;;;;;;58.58;23.00;;;0.90;99.90;;;;;;4995129;28;20052;-81
2021/12/11 08:56:18;;;;;;;69.15;26.90;;;0.90;99.90;;;;;;4992238;28;20486;-81
2021/12/11 08:58:44;;;;;;;54.58;22.42;;;1.00;99.90;;;;;;5010582;28;20045;-81
2021/12/11 09:01:30;;;;;;;67.38;26.75;;;1.00;99.90;;;;;;4995343;28;20038;-82
2021/12/11 09:04:05;;;;;;;77.63;29.15;;;1.10;99.90;;;;;;5007732;28;20525;-81
2021/12/11 09:06:40;;;;;;;84.43;31.20;;;1.20;99.90;;;;;;4987565;28;20034;-82
2021/12/11 09:09:14;;;;;;;69.20;26.88;;;1.20;99.90;;;;;;4973353;28;20523;-81
2021/12/11 09:11:43;;;;;;;74.18;28.45;;;1.30;99.90;;;;;;4993291;28;20037;-82
2021/12/11 09:14:12;;;;;;;70.53;27.98;;;1.30;99.90;;;;;;4988510;28;20041;-82
2021/12/11 09:16:44;;;;;;;90.45;32.65;;;1.40;99.90;;;;;;5004192;28;20100;-82
2021/12/11 09:19:13;;;;;;;81.57;31.65;;;1.40;99.90;;;;;;4990674;28;20666;-82
2021/12/11 09:21:44;;;;;;;90.88;35.17;;;1.50;99.90;;;;;;5008218;28;20492;-81
2021/12/11 09:24:14;;;;;;;88.55;30.58;;;1.50;99.90;;;;;;4992442;28;20045;-81
2021/12/11 09:26:44;;;;;;;73.65;28.58;;;1.60;99.90;;;;;;5008081;28;20409;-80
2021/12/11 09:29:48;;;;;;;70.53;25.35;;;1.60;99.90;;;;;;4986873;28;20140;-81
2021/12/11 09:32:39;;;;;;;71.00;28.23;;;1.60;99.90;;;;;;4981041;28;20079;-81
2021/12/11 09:35:10;;;;;;;89.38;30.58;;;1.60;99.90;;;;;;4982434;28;20061;-81
2021/12/11 09:37:36;;;;;;;72.20;28.73;;;1.70;99.90;;;;;;4992790;28;20081;-81
2021/12/11 09:40:21;;;;;;;81.80;31.05;;;1.70;99.90;;;;;;5008048;28;20561;-81
2021/12/11 09:42:47;;;;;;;81.18;29.80;;;1.70;99.90;;;;;;5025765;28;20053;-82
2021/12/11 09:45:23;;;;;;;86.63;29.05;;;1.80;99.90;;;;;;5021161;28;20073;-82
2021/12/11 09:47:56;;;;;;;86.28;30.52;;;1.80;99.90;;;;;;4987484;28;20033;-82
2021/12/11 09:50:30;;;;;;;68.50;26.33;;;1.80;99.90;;;;;;4992543;28;20033;-82
2021/12/11 09:52:56;;;;;;;86.35;31.40;;;1.90;99.90;;;;;;4970224;28;20029;-83
2021/12/11 09:55:26;;;;;;;77.65;27.15;;;1.90;99.90;;;;;;4975155;28;20030;-84
2021/12/11 09:57:54;;;;;;;85.72;30.27;;;1.90;99.90;;;;;;4988831;28;20083;-84
2021/12/11 10:00:28;;;;;;;79.30;27.77;;;2.00;99.90;;;;;;4990285;28;20056;-84
2021/12/11 10:02:54;;;;;;;75.20;27.40;;;2.00;99.90;;;;;;4986592;28;20057;-84
2021/12/11 10:05:36;;;;;;;72.68;29.42;;;2.00;99.90;;;;;;5011530;28;20056;-83
2021/12/11 10:08:36;;;;;;;75.35;27.98;;;2.00;99.90;;;;;;4990632;28;20034;-83
2021/12/11 10:11:15;;;;;;;84.22;29.48;;;2.00;99.90;;;;;;4991370;28;20033;-84
2021/12/11 10:13:54;;;;;;;67.38;25.80;;;2.00;99.90;;;;;;4990977;28;20360;-84
2021/12/11 10:16:22;;;;;;;79.85;28.27;;;2.10;99.90;;;;;;5002876;28;20079;-85
2021/12/11 10:18:48;;;;;;;76.03;27.45;;;2.00;99.90;;;;;;4992630;28;20591;-83
2021/12/11 10:21:16;;;;;;;88.30;33.20;;;2.00;99.90;;;;;;5003225;28;20037;-84
2021/12/11 10:23:44;;;;;;;65.55;25.73;;;2.10;99.90;;;;;;4984695;28;20269;-84
2021/12/11 10:26:11;;;;;;;74.43;27.63;;;2.20;99.90;;;;;;4976791;28;20021;-84
2021/12/11 10:28:38;;;;;;;83.13;30.45;;;2.20;99.90;;;;;;4976757;28;20029;-84
2021/12/11 10:31:07;;;;;;;60.70;24.23;;;2.20;99.90;;;;;;4997716;28;20044;-84
2021/12/11 10:33:33;;;;;;;80.72;29.75;;;2.10;99.90;;;;;;4992801;28;20552;-84
2021/12/11 10:36:04;;;;;;;73.30;26.48;;;2.20;99.90;;;;;;4999211;28;20072;-83
2021/12/11 10:38:29;;;;;;;59.90;23.98;;;2.20;99.90;;;;;;4988860;28;20117;-84
2021/12/11 10:40:57;;;;;;;71.82;26.65;;;2.20;99.90;;;;;;4990238;28;20459;-83
2021/12/11 10:43:36;;;;;;;63.03;22.83;;;2.30;99.90;;;;;;4970134;28;20498;-84
2021/12/11 10:46:03;;;;;;;60.05;22.02;;;2.20;99.90;;;;;;4990347;28;20041;-84
2021/12/11 10:48:30;;;;;;;62.75;23.85;;;2.20;99.90;;;;;;4987649;28;20030;-84
2021/12/11 10:51:06;;;;;;;80.15;29.05;;;2.30;99.90;;;;;;4984825;28;20039;-83
2021/12/11 10:53:32;;;;;;;;;;;2.30;99.90;;;;;;5005902;28;20168;-84
2021/12/11 10:55:58;;;;;;;68.40;23.53;;;2.30;99.90;;;;;;4994476;28;19987;-85
2021/12/11 10:58:27;;;;;;;64.28;23.88;;;2.30;99.90;;;;;;4978185;28;20493;-84
2021/12/11 11:00:54;;;;;;;71.03;21.92;;;2.30;99.90;;;;;;4976472;28;20113;-84
2021/12/11 11:03:20;;;;;;;72.75;25.27;;;2.30;99.90;;;;;;4997479;28;20030;-84
2021/12/11 11:05:46;;;;;;;66.53;26.35;;;2.40;99.90;;;;;;4978186;28;20487;-85
2021/12/11 11:08:12;;;;;;;76.97;27.50;;;2.40;99.90;;;;;;4974534;28;20076;-85
2021/12/11 11:10:42;;;;;;;61.42;23.42;;;2.40;99.90;;;;;;4977245;28;20076;-85
2021/12/11 11:13:10;;;;;;;69.85;27.20;;;2.40;99.90;;;;;;4997062;28;20026;-84
2021/12/11 11:15:36;;;;;;;62.92;24.25;;;2.40;99.90;;;;;;4989084;28;20490;-85
2021/12/11 11:18:01;;;;;;;62.80;22.92;;;2.40;99.90;;;;;;4973614;28;20029;-85
2021/12/11 11:20:36;;;;;;;69.78;26.90;;;2.40;99.90;;;;;;4980642;28;20156;-85
2021/12/11 11:23:03;;;;;;;67.13;23.37;;;2.50;99.90;;;;;;5008166;28;20482;-86
2021/12/11 11:25:30;;;;;;;66.70;25.58;;;2.50;99.90;;;;;;4991660;28;20041;-86
2021/12/11 11:28:00;;;;;;;71.90;26.45;;;2.60;99.90;;;;;;4975682;28;20045;-85
2021/12/11 11:30:32;;;;;;;75.40;25.75;;;2.70;99.90;;;;;;4991197;28;20164;-86
2021/12/11 11:32:58;;;;;;;75.32;27.70;;;2.70;99.90;;;;;;4985721;28;20032;-84
2021/12/11 11:35:25;;;;;;;74.70;26.38;;;2.70;99.90;;;;;;4974365;28;20084;-85
2021/12/11 11:37:52;;;;;;;73.55;27.55;;;2.80;99.90;;;;;;4979417;28;20053;-86
2021/12/11 11:40:27;;;;;;;66.05;24.23;;;2.70;99.90;;;;;;4984528;28;20460;-85
2021/12/11 11:42:53;;;;;;;65.90;25.83;;;2.70;99.90;;;;;;4987521;28;20037;-86
2021/12/11 11:45:19;;;;;;;65.15;23.60;;;2.80;99.90;;;;;;4986339;28;20628;-86
2021/12/11 11:47:45;;;;;;;74.70;26.77;;;2.90;99.90;;;;;;4998114;28;20121;-85
2021/12/11 11:50:12;;;;;;;80.15;27.20;;;2.90;99.90;;;;;;4990060;28;20038;-84
2021/12/11 11:52:40;;;;;;;79.93;28.15;;;3.00;99.90;;;;;;5008438;28;20029;-86
2021/12/11 11:55:10;;;;;;;85.32;31.88;;;2.90;99.90;;;;;;4655844;28;10000129;-85
2021/12/11 11:57:38;;;;;;;80.25;28.98;;;3.00;99.90;;;;;;4988607;28;20056;-85
2021/12/11 12:00:19;;;;;;;65.15;25.70;;;3.00;99.90;;;;;;4991447;28;20074;-86
2021/12/11 12:02:45;;;;;;;56.28;21.50;;;3.00;99.90;;;;;;5010708;28;20041;-85
2021/12/11 12:05:10;;;;;;;81.85;28.38;;;3.00;99.90;;;;;;4973840;28;20779;-85
2021/12/11 12:07:36;;;;;;;82.93;28.25;;;3.10;99.90;;;;;;4974236;28;20029;-85
2021/12/11 12:10:06;;;;;;;79.32;29.63;;;3.10;99.90;;;;;;5008095;28;20033;-85
2021/12/11 12:12:32;;;;;;;87.65;31.02;;;3.20;99.90;;;;;;4995931;28;20049;-85
2021/12/11 12:14:59;;;;;;;73.28;26.90;;;3.20;99.90;;;;;;4974404;28;20153;-85
2021/12/11 12:17:27;;;;;;;61.80;21.98;;;3.20;99.90;;;;;;4976712;28;20049;-86
2021/12/11 12:19:53;;;;;;;62.85;22.08;;;3.20;99.90;;;;;;4977432;28;20068;-86
2021/12/11 12:22:19;;;;;;;58.45;23.00;;;3.10;99.90;;;;;;4992628;28;20080;-86
2021/12/11 12:24:45;;;;;;;73.53;27.52;;;3.20;99.90;;;;;;4995016;28;20457;-88
2021/12/11 12:27:12;;;;;;;88.65;33.33;;;3.30;99.90;;;;;;4979575;28;20112;-87
2021/12/11 12:29:39;;;;;;;76.47;28.42;;;3.40;99.90;;;;;;4979296;28;20041;-85
2021/12/11 12:32:07;;;;;;;60.65;22.98;;;3.40;99.90;;;;;;4973113;28;20432;-86
2021/12/11 12:34:33;;;;;;;66.40;23.95;;;3.40;99.90;;;;;;4993061;28;20095;-85
2021/12/11 12:37:00;;;;;;;59.45;21.77;;;3.40;99.90;;;;;;4987592;28;20029;-84
2021/12/11 12:39:36;;;;;;;49.05;19.63;;;3.50;99.90;;;;;;5008737;28;20044;-86
2021/12/11 12:42:15;;;;;;;58.67;22.27;;;3.40;99.90;;;;;;4981705;28;20043;-86
2021/12/11 12:44:42;;;;;;;50.35;20.00;;;3.30;99.90;;;;;;5010824;28;20090;-85
2021/12/11 12:47:13;;;;;;;47.30;19.52;;;3.30;99.90;;;;;;4979976;28;20793;-85
2021/12/11 12:49:41;;;;;;;54.65;20.55;;;3.30;99.90;;;;;;4986491;28;20478;-85
2021/12/11 12:52:13;;;;;;;41.90;17.77;;;3.20;99.90;;;;;;4993946;28;20493;-84
2021/12/11 12:54:39;;;;;;;40.97;17.67;;;3.30;99.90;;;;;;4994717;28;20029;-86
2021/12/11 12:57:13;;;;;;;46.17;18.73;;;3.20;99.90;;;;;;4967077;28;20034;-86
2021/12/11 12:59:43;;;;;;;47.65;21.00;;;3.30;99.90;;;;;;4977790;28;20132;-85